createdAt,value
2019-04-14T00:01:02.889Z,26.17
2019-04-14T00:03:21.584Z,28.42
2019-04-14T00:05:31.526Z,25.85
2019-04-14T00:07:39.005Z,26.75
2019-04-14T00:09:47.611Z,21.23
2019-04-14T00:11:56.939Z,23.20
2019-04-14T00:14:05.823Z,21.20
2019-04-14T00:16:16.375Z,22.93
2019-04-14T00:18:25.129Z,23.70
2019-04-14T00:20:33.684Z,23.18
2019-04-14T00:22:42.494Z,23.10
2019-04-14T00:24:51.094Z,23.30
2019-04-14T00:26:59.551Z,23.65
2019-04-14T00:29:08.933Z,21.60
2019-04-14T00:31:17.350Z,23.15
2019-04-14T00:33:28.084Z,23.02
2019-04-14T00:35:49.794Z,21.77
2019-04-14T00:38:17.254Z,21.57
2019-04-14T00:40:29.621Z,23.10
2019-04-14T00:42:58.076Z,21.50
2019-04-14T00:45:11.216Z,21.75
2019-04-14T00:47:48.389Z,21.37
2019-04-14T00:49:46.280Z,21.65
2019-04-14T00:51:54.999Z,21.27
2019-04-14T00:54:04.367Z,20.55
2019-04-14T00:56:12.854Z,21.73
2019-04-14T00:58:21.938Z,21.35
2019-04-14T01:00:29.775Z,18.23
2019-04-14T01:02:38.533Z,21.42
2019-04-14T01:04:46.960Z,21.87
2019-04-14T01:06:55.501Z,20.40
2019-04-14T01:09:04.288Z,21.07
2019-04-14T01:11:12.431Z,20.80
2019-04-14T01:13:20.300Z,20.95
2019-04-14T01:15:29.023Z,19.92
2019-04-14T01:17:37.373Z,20.48
2019-04-14T01:19:45.992Z,19.20
2019-04-14T01:21:54.562Z,18.40
2019-04-14T01:24:03.204Z,15.95
2019-04-14T01:26:11.756Z,20.02
2019-04-14T01:28:20.119Z,15.65
2019-04-14T01:30:29.130Z,18.95
2019-04-14T01:32:37.236Z,17.37
2019-04-14T01:34:45.647Z,19.87
2019-04-14T01:36:54.032Z,19.07
2019-04-14T01:39:02.530Z,19.23
2019-04-14T01:41:12.888Z,19.80
2019-04-14T01:43:21.341Z,18.75
2019-04-14T01:45:29.582Z,18.87
2019-04-14T01:47:37.762Z,18.98
2019-04-14T01:49:46.610Z,17.48
2019-04-14T01:52:12.461Z,16.10
2019-04-14T01:54:34.495Z,17.65
2019-04-14T01:56:47.161Z,17.85
2019-04-14T01:58:57.950Z,18.67
2019-04-14T02:01:14.951Z,17.90
2019-04-14T02:03:23.827Z,19.30
2019-04-14T02:05:32.103Z,18.60
2019-04-14T02:07:40.468Z,20.05
2019-04-14T02:09:48.927Z,21.30
2019-04-14T02:11:57.479Z,19.70
2019-04-14T02:14:06.175Z,17.20
2019-04-14T02:16:24.926Z,18.12
2019-04-14T02:18:24.949Z,17.48
2019-04-14T02:20:33.916Z,16.48
2019-04-14T02:22:42.005Z,17.30
2019-04-14T02:24:50.333Z,16.45
2019-04-14T02:26:59.142Z,16.57
2019-04-14T02:29:07.935Z,12.28
2019-04-14T02:31:35.580Z,17.07
2019-04-14T02:33:52.573Z,15.90
2019-04-14T02:36:06.317Z,16.00
2019-04-14T02:38:35.992Z,12.37
2019-04-14T02:40:34.868Z,15.20
2019-04-14T02:42:34.269Z,17.40
2019-04-14T02:48:58.719Z,16.30
2019-04-14T02:51:12.477Z,16.75
2019-04-14T02:53:25.308Z,16.87
2019-04-14T02:55:26.279Z,16.60
2019-04-14T03:02:14.094Z,16.17
2019-04-14T03:04:08.979Z,15.85
2019-04-14T03:06:18.168Z,16.73
2019-04-14T03:08:34.352Z,15.68
2019-04-14T03:12:46.576Z,16.05
2019-04-14T03:15:07.191Z,16.07
2019-04-14T03:17:21.507Z,15.80
2019-04-14T03:19:14.676Z,16.20
2019-04-14T03:21:36.095Z,16.10
2019-04-14T03:24:07.135Z,15.03
2019-04-14T03:26:23.021Z,15.68
2019-04-14T03:28:36.514Z,15.25
2019-04-14T03:31:12.263Z,15.80
2019-04-14T03:33:21.820Z,12.47
2019-04-14T03:35:20.119Z,15.28
2019-04-14T03:39:23.495Z,14.38
2019-04-14T03:41:32.610Z,15.80
2019-04-14T03:43:39.291Z,14.68
2019-04-14T03:45:55.187Z,14.83
2019-04-14T03:48:16.872Z,14.95
2019-04-14T03:50:06.063Z,15.63
2019-04-14T03:54:20.613Z,13.00
2019-04-14T03:56:17.668Z,15.48
2019-04-14T03:58:25.111Z,14.83
2019-04-14T04:00:33.561Z,16.80
2019-04-14T04:02:42.305Z,16.30
2019-04-14T04:04:51.201Z,15.30
2019-04-14T04:06:59.637Z,28.62
2019-04-14T04:09:08.470Z,23.83
2019-04-14T04:11:17.191Z,15.93
2019-04-14T04:13:25.963Z,15.30
2019-04-14T04:15:35.030Z,15.78
2019-04-14T04:17:45.200Z,15.10
2019-04-14T04:20:10.997Z,16.00
2019-04-14T04:22:37.035Z,15.15
2019-04-14T04:24:47.515Z,12.93
2019-04-14T04:26:58.149Z,15.30
2019-04-14T04:29:11.223Z,14.13
2019-04-14T04:31:24.227Z,14.83
2019-04-14T04:33:43.667Z,14.87
2019-04-14T04:35:56.491Z,14.00
2019-04-14T04:38:09.499Z,14.78
2019-04-14T04:40:20.107Z,12.50
2019-04-14T04:42:28.708Z,10.72
2019-04-14T04:44:37.672Z,11.83
2019-04-14T04:46:46.005Z,14.68
2019-04-14T04:49:03.189Z,10.75
2019-04-14T04:51:03.313Z,14.35
2019-04-14T04:53:11.541Z,12.90
2019-04-14T04:55:19.842Z,15.58
2019-04-14T04:57:28.541Z,13.30
2019-04-14T04:59:36.790Z,14.35
2019-04-14T05:01:45.163Z,14.45
2019-04-14T05:03:53.592Z,9.70
2019-04-14T05:06:39.753Z,12.40
2019-04-14T05:09:04.201Z,11.68
2019-04-14T05:11:14.358Z,8.50
2019-04-14T05:13:22.714Z,10.85
2019-04-14T05:15:33.401Z,13.38
2019-04-14T05:17:43.132Z,12.33
2019-04-14T05:19:52.057Z,14.13
2019-04-14T05:22:00.625Z,13.38
2019-04-14T05:24:09.277Z,12.98
2019-04-14T05:26:17.834Z,13.48
2019-04-14T05:28:26.715Z,11.95
2019-04-14T05:30:34.996Z,11.65
2019-04-14T05:32:43.429Z,12.00
2019-04-14T05:34:52.156Z,11.48
2019-04-14T05:37:00.688Z,13.55
2019-04-14T05:39:09.613Z,13.53
2019-04-14T05:41:18.020Z,11.18
2019-04-14T05:43:36.729Z,14.23
2019-04-14T05:45:35.298Z,13.40
2019-04-14T05:47:43.634Z,13.05
2019-04-14T05:49:54.673Z,13.88
2019-04-14T05:52:01.302Z,13.58
2019-04-14T05:54:09.950Z,12.58
2019-04-14T05:56:18.811Z,13.20
2019-04-14T05:58:27.508Z,19.07
2019-04-14T06:00:36.867Z,16.05
2019-04-14T06:02:46.243Z,16.35
2019-04-14T06:04:57.051Z,27.73
2019-04-14T06:07:05.263Z,19.67
2019-04-14T06:09:13.272Z,25.02
2019-04-14T06:11:20.944Z,17.23
2019-04-14T06:13:28.801Z,12.53
2019-04-14T06:15:36.815Z,13.88
2019-04-14T06:17:44.587Z,14.00
2019-04-14T06:19:52.448Z,11.48
2019-04-14T06:22:00.198Z,13.40
2019-04-14T06:24:08.023Z,13.85
2019-04-14T06:26:15.826Z,77.22
2019-04-14T06:28:23.518Z,151.97
2019-04-14T06:30:43.485Z,80.77
2019-04-14T06:32:52.168Z,53.15
2019-04-14T06:35:19.755Z,25.15
2019-04-14T06:37:29.167Z,19.90
2019-04-14T06:39:54.563Z,23.98
2019-04-14T06:42:02.414Z,28.52
2019-04-14T06:44:10.198Z,18.10
2019-04-14T06:46:19.100Z,17.42
2019-04-14T06:48:26.866Z,19.67
2019-04-14T06:50:34.679Z,22.73
2019-04-14T06:52:42.476Z,90.92
2019-04-14T06:54:50.316Z,69.67
2019-04-14T06:56:58.295Z,37.28
2019-04-14T06:59:06.139Z,75.57
2019-04-14T07:01:13.813Z,22.13
2019-04-14T07:03:21.675Z,18.37
2019-04-14T07:05:29.472Z,15.13
2019-04-14T07:07:37.369Z,24.63
2019-04-14T07:09:45.249Z,19.48
2019-04-14T07:11:53.146Z,25.57
2019-04-14T07:14:00.984Z,15.40
2019-04-14T07:16:08.713Z,11.88
2019-04-14T07:18:16.592Z,23.20
2019-04-14T07:20:24.358Z,23.70
2019-04-14T07:22:32.240Z,15.85
2019-04-14T07:24:40.172Z,15.93
2019-04-14T07:26:48.017Z,13.93
2019-04-14T07:28:56.798Z,20.85
2019-04-14T07:31:23.092Z,21.82
2019-04-14T07:33:36.594Z,11.00
2019-04-14T07:35:52.071Z,16.85
2019-04-14T07:38:01.420Z,18.52
2019-04-14T07:40:27.232Z,16.48
2019-04-14T07:42:45.575Z,18.87
2019-04-14T07:45:01.037Z,14.13
2019-04-14T07:47:08.949Z,12.20
2019-04-14T07:49:16.418Z,15.78
2019-04-14T07:51:25.922Z,18.15
2019-04-14T07:53:36.505Z,16.00
2019-04-14T07:55:55.320Z,16.50
2019-04-14T07:58:23.071Z,18.80
2019-04-14T08:00:36.487Z,16.95
2019-04-14T08:02:51.767Z,16.37
2019-04-14T08:05:03.935Z,13.90
2019-04-14T08:07:11.810Z,13.05
2019-04-14T08:09:19.691Z,15.18
2019-04-14T08:11:28.645Z,19.95
2019-04-14T08:13:37.291Z,13.85
2019-04-14T08:15:44.977Z,13.08
2019-04-14T08:17:52.779Z,12.88
2019-04-14T08:20:00.532Z,13.78
2019-04-14T08:22:08.311Z,13.30
2019-04-14T08:24:16.212Z,13.58
2019-04-14T08:26:24.006Z,13.18
2019-04-14T08:28:31.859Z,13.32
2019-04-14T08:30:39.746Z,12.58
2019-04-14T08:32:47.510Z,13.22
2019-04-14T08:34:55.310Z,12.80
2019-04-14T08:37:03.147Z,11.80
2019-04-14T08:39:11.081Z,12.47
2019-04-14T09:16:08.358Z,12.80
2019-04-14T09:18:16.287Z,11.40
2019-04-14T09:20:30.810Z,12.10
2019-04-14T09:22:41.558Z,12.05
2019-04-14T09:24:50.395Z,11.55
2019-04-14T09:26:58.789Z,12.13
2019-04-14T09:29:07.702Z,11.65
2019-04-14T09:31:16.838Z,11.18
2019-04-14T09:33:25.369Z,12.93
2019-04-14T09:35:34.441Z,12.55
2019-04-14T09:37:42.642Z,12.58
2019-04-14T09:39:50.337Z,11.65
2019-04-14T09:41:58.131Z,11.55
2019-04-14T09:44:06.221Z,12.03
2019-04-14T09:46:14.017Z,12.03
2019-04-14T09:48:21.905Z,12.23
2019-04-14T09:50:29.691Z,11.05
2019-04-14T09:52:37.483Z,10.13
2019-04-14T09:54:45.401Z,11.30
2019-04-14T09:56:53.199Z,13.68
2019-04-14T09:59:00.985Z,11.28
2019-04-14T10:01:09.169Z,11.30
2019-04-14T10:03:17.071Z,11.78
2019-04-14T10:05:24.762Z,12.50
2019-04-14T10:07:32.654Z,13.53
2019-04-14T10:09:40.482Z,15.75
2019-04-14T10:11:51.154Z,21.52
2019-04-14T10:13:59.369Z,10.90
2019-04-14T10:16:07.168Z,11.18
2019-04-14T10:18:14.957Z,11.68
2019-04-14T10:20:22.775Z,10.72
2019-04-14T10:22:34.239Z,11.53
2019-04-14T10:24:40.530Z,11.25
2019-04-14T10:26:48.340Z,11.65
2019-04-14T10:28:56.141Z,11.08
2019-04-14T10:31:03.933Z,10.35
2019-04-14T10:33:11.752Z,10.82
2019-04-14T10:35:19.444Z,10.48
2019-04-14T10:37:27.157Z,11.78
2019-04-14T10:39:35.102Z,11.48
2019-04-14T10:41:44.059Z,11.85
2019-04-14T10:43:51.751Z,11.00
2019-04-14T10:45:59.468Z,9.90
2019-04-14T10:48:07.230Z,17.67
2019-04-14T10:50:15.161Z,11.48
2019-04-14T10:52:24.068Z,13.60
2019-04-14T10:54:31.826Z,10.85
2019-04-14T10:56:39.578Z,10.20
2019-04-14T10:58:47.481Z,11.12
2019-04-14T11:00:55.431Z,10.00
2019-04-14T11:03:04.443Z,10.68
2019-04-14T11:05:12.468Z,10.63
2019-04-14T11:07:29.900Z,10.25
2019-04-14T11:09:37.907Z,10.10
2019-04-14T11:11:45.999Z,10.30
2019-04-14T11:13:54.659Z,10.35
2019-04-14T11:16:02.526Z,9.13
2019-04-14T11:18:10.248Z,9.63
2019-04-14T11:20:17.931Z,10.08
2019-04-14T11:22:25.831Z,9.60
2019-04-14T11:24:33.544Z,9.03
2019-04-14T11:26:41.394Z,8.10
2019-04-14T11:28:49.201Z,10.72
2019-04-14T11:30:57.091Z,19.12
2019-04-14T11:33:23.174Z,11.10
2019-04-14T11:35:42.011Z,13.60
2019-04-14T11:37:50.764Z,55.88
2019-04-14T11:39:58.718Z,156.20
2019-04-14T11:42:06.573Z,24.00
2019-04-14T11:44:14.414Z,18.92
2019-04-14T11:46:22.163Z,16.42
2019-04-14T11:48:30.210Z,39.35
2019-04-14T11:50:37.976Z,20.65
2019-04-14T11:52:45.768Z,8.28
2019-04-14T11:54:53.559Z,19.25
2019-04-14T11:57:01.586Z,7.85
2019-04-14T11:59:09.479Z,24.25
2019-04-14T12:01:19.732Z,13.53
2019-04-14T12:03:27.427Z,17.50
2019-04-14T12:05:37.921Z,10.65
2019-04-14T12:07:56.043Z,16.07
2019-04-14T12:10:08.503Z,19.42
2019-04-14T12:12:16.363Z,10.32
2019-04-14T12:14:24.228Z,13.72
2019-04-14T12:16:32.064Z,12.03
2019-04-14T12:18:40.314Z,16.65
2019-04-14T12:20:48.204Z,9.28
2019-04-14T12:22:56.082Z,9.88
2019-04-14T12:25:04.184Z,12.60
2019-04-14T12:27:11.999Z,11.83
2019-04-14T12:29:19.810Z,10.72
2019-04-14T12:31:28.717Z,11.93
2019-04-14T12:33:36.555Z,10.88
2019-04-14T12:35:44.374Z,7.28
2019-04-14T12:37:52.136Z,19.52
2019-04-14T12:39:59.926Z,16.05
2019-04-14T12:42:10.578Z,11.10
2019-04-14T12:44:24.289Z,8.20
2019-04-14T12:46:42.520Z,6.83
2019-04-14T12:48:50.102Z,7.17
2019-04-14T12:51:02.091Z,7.80
2019-04-14T12:53:09.883Z,7.40
2019-04-14T12:55:17.800Z,7.50
2019-04-14T12:57:27.222Z,6.75
2019-04-14T12:59:35.986Z,10.10
2019-04-14T13:01:43.569Z,6.47
2019-04-14T13:03:51.366Z,8.38
2019-04-14T13:05:59.180Z,7.40
2019-04-14T13:08:06.996Z,17.20
2019-04-14T13:10:15.332Z,6.87
2019-04-14T13:12:24.220Z,12.05
2019-04-14T13:14:34.653Z,12.63
2019-04-14T13:16:41.664Z,10.82
2019-04-14T13:18:50.328Z,8.03
2019-04-14T13:20:58.238Z,10.88
2019-04-14T13:23:06.191Z,9.95
2019-04-14T13:25:14.009Z,9.40
2019-04-14T13:27:23.219Z,8.20
2019-04-14T13:29:31.102Z,9.00
2019-04-14T13:31:38.786Z,9.48
2019-04-14T13:33:46.621Z,8.38
2019-04-14T13:35:54.504Z,8.60
2019-04-14T13:38:02.200Z,9.45
2019-04-14T13:40:11.824Z,5.90
2019-04-14T13:42:19.626Z,7.60
2019-04-14T13:44:29.008Z,8.35
2019-04-14T13:46:39.893Z,8.70
2019-04-14T13:48:48.916Z,7.80
2019-04-14T13:50:56.896Z,6.80
2019-04-14T13:53:05.456Z,7.72
2019-04-14T13:55:13.541Z,8.28
2019-04-14T13:57:21.372Z,8.60
2019-04-14T13:59:29.426Z,7.97
2019-04-14T14:01:37.288Z,7.87
2019-04-14T14:03:45.090Z,9.03
2019-04-14T14:05:52.911Z,9.75
2019-04-14T14:08:00.603Z,9.00
2019-04-14T14:10:10.688Z,9.65
2019-04-14T14:12:32.137Z,14.25
2019-04-14T14:14:57.674Z,13.38
2019-04-14T14:17:10.336Z,13.58
2019-04-14T14:19:20.021Z,10.45
2019-04-14T14:21:29.519Z,11.00
2019-04-14T14:23:38.883Z,13.18
2019-04-14T14:25:53.824Z,11.33
2019-04-14T14:28:01.666Z,12.90
2019-04-14T14:30:11.843Z,7.75
2019-04-14T14:32:27.241Z,11.20
2019-04-14T14:34:35.206Z,7.97
2019-04-14T14:36:44.701Z,10.90
2019-04-14T14:38:52.606Z,12.45
2019-04-14T14:41:02.087Z,14.00
2019-04-14T14:43:09.778Z,14.63
2019-04-14T14:45:17.699Z,23.85
2019-04-14T14:47:30.051Z,18.48
2019-04-14T14:49:43.651Z,11.00
2019-04-14T14:51:55.788Z,9.15
2019-04-14T14:54:03.572Z,9.65
2019-04-14T14:56:11.354Z,8.75
2019-04-14T14:58:19.171Z,9.00
2019-04-14T15:00:31.180Z,7.28
2019-04-14T15:02:39.074Z,7.65
2019-04-14T15:04:46.787Z,8.90
2019-04-14T15:06:54.655Z,10.10
2019-04-14T15:09:02.349Z,10.70
2019-04-14T15:11:11.951Z,6.92
2019-04-14T15:13:19.807Z,7.92
2019-04-14T15:15:27.823Z,8.23
2019-04-14T15:17:35.643Z,8.80
2019-04-14T15:19:44.359Z,7.67
2019-04-14T15:21:52.353Z,7.28
2019-04-14T15:24:00.297Z,7.40
2019-04-14T15:26:08.053Z,7.15
2019-04-14T15:28:15.913Z,7.37
2019-04-14T15:30:24.586Z,7.80
2019-04-14T15:32:32.486Z,8.83
2019-04-14T15:34:40.269Z,7.60
2019-04-14T15:36:51.219Z,7.87
2019-04-14T15:38:58.759Z,7.58
2019-04-14T15:41:07.581Z,8.43
2019-04-14T15:43:15.592Z,7.28
2019-04-14T15:45:23.477Z,6.95
2019-04-14T15:47:31.261Z,7.72
2019-04-14T15:49:39.139Z,7.95
2019-04-14T15:51:47.014Z,7.75
2019-04-14T15:53:54.675Z,8.48
2019-04-14T15:56:03.888Z,8.60
2019-04-14T15:58:13.324Z,8.58
2019-04-14T16:00:38.844Z,9.95
2019-04-14T16:02:48.474Z,9.43
2019-04-14T16:04:57.903Z,10.85
2019-04-14T16:07:08.315Z,9.28
2019-04-14T16:09:21.932Z,11.22
2019-04-14T16:11:40.283Z,10.58
2019-04-14T16:14:04.396Z,10.80
2019-04-14T16:16:17.836Z,16.10
2019-04-14T16:18:43.496Z,18.35
2019-04-14T16:20:52.484Z,16.93
2019-04-14T16:23:03.015Z,43.98
2019-04-14T16:25:11.218Z,84.30
2019-04-14T16:27:23.601Z,26.37
2019-04-14T16:29:42.279Z,21.27
2019-04-14T16:32:08.212Z,24.23
2019-04-14T16:34:20.336Z,21.52
2019-04-14T16:36:28.235Z,16.60
2019-04-14T16:38:36.136Z,17.92
2019-04-14T16:40:44.070Z,15.32
2019-04-14T16:42:51.811Z,19.52
2019-04-14T16:44:59.684Z,12.75
2019-04-14T16:47:07.486Z,18.85
2019-04-14T16:49:15.295Z,17.80
2019-04-14T16:51:30.314Z,18.15
2019-04-14T16:53:39.887Z,16.50
2019-04-14T16:56:02.858Z,19.52
2019-04-14T16:58:24.893Z,18.00
2019-04-14T17:00:37.024Z,16.73
2019-04-14T17:02:43.755Z,15.40
2019-04-14T17:04:51.621Z,15.93
2019-04-14T17:06:59.422Z,22.13
2019-04-14T17:09:08.669Z,19.85
2019-04-14T17:11:18.067Z,21.55
2019-04-14T17:13:27.677Z,23.92
2019-04-14T17:15:54.600Z,31.37
2019-04-14T17:18:02.184Z,22.60
2019-04-14T17:20:23.937Z,81.00
2019-04-14T17:22:31.722Z,71.85
2019-04-14T17:24:43.937Z,164.22
2019-04-14T17:29:17.210Z,369.98
2019-04-14T17:31:31.562Z,251.70
2019-04-14T17:33:41.110Z,384.07
2019-04-14T17:35:56.463Z,474.95
2019-04-14T17:38:11.998Z,470.57
2019-04-14T17:40:33.842Z,504.48
2019-04-14T17:42:49.305Z,302.75
2019-04-14T17:44:57.487Z,247.20
2019-04-14T17:47:07.004Z,276.37
2019-04-14T17:51:41.134Z,61.55
2019-04-14T17:53:50.683Z,46.48
2019-04-14T17:56:05.520Z,54.23
2019-04-14T17:58:14.958Z,37.70
2019-04-14T18:00:24.512Z,55.73
2019-04-14T18:02:36.916Z,34.15
2019-04-14T18:04:49.065Z,33.60
2019-04-14T18:07:01.496Z,33.67
2019-04-14T18:09:20.100Z,30.77
2019-04-14T18:11:29.725Z,23.18
2019-04-14T18:13:37.470Z,21.60
2019-04-14T18:16:03.617Z,23.32
2019-04-14T18:18:23.191Z,40.60
2019-04-14T18:20:35.299Z,39.65
2019-04-14T18:22:43.205Z,39.65
2019-04-14T18:24:50.981Z,34.88
2019-04-14T18:26:58.758Z,44.83
2019-04-14T18:29:24.705Z,20.23
2019-04-14T18:31:34.121Z,21.00
2019-04-14T18:33:43.537Z,28.32
2019-04-14T18:35:58.826Z,33.25
2019-04-14T18:38:16.996Z,34.38
2019-04-14T18:40:32.446Z,45.25
2019-04-14T18:42:48.245Z,42.48
2019-04-14T18:45:03.647Z,45.55
2019-04-14T18:47:11.205Z,41.00
2019-04-14T18:49:20.665Z,35.08
2019-04-14T18:51:30.055Z,41.20
2019-04-14T18:53:42.674Z,39.98
2019-04-14T18:55:53.296Z,33.63
2019-04-14T18:58:00.991Z,29.72
2019-04-14T19:00:13.514Z,29.72
2019-04-14T19:02:21.467Z,58.52
2019-04-14T19:04:29.330Z,33.50
2019-04-14T19:06:37.193Z,26.50
2019-04-14T19:08:45.083Z,42.33
2019-04-14T19:11:11.029Z,23.05
2019-04-14T19:13:23.462Z,28.20
2019-04-14T19:15:35.746Z,22.55
2019-04-14T19:17:51.039Z,23.47
2019-04-14T19:20:01.933Z,22.70
2019-04-14T19:22:10.522Z,32.08
2019-04-14T19:24:18.428Z,43.45
2019-04-14T19:26:26.305Z,50.28
2019-04-14T19:28:34.137Z,43.75
2019-04-14T19:30:41.922Z,27.90
2019-04-14T19:32:49.694Z,20.15
2019-04-14T19:34:57.487Z,17.27
2019-04-14T19:37:05.268Z,16.07
2019-04-14T19:39:13.040Z,17.40
2019-04-14T19:41:20.910Z,17.07
2019-04-14T19:43:28.828Z,16.32
2019-04-14T19:45:36.639Z,16.50
2019-04-14T19:47:44.450Z,16.27
2019-04-14T19:49:52.126Z,17.15
2019-04-14T19:51:59.896Z,15.03
2019-04-14T19:54:07.802Z,14.58
2019-04-14T19:56:15.567Z,14.87
2019-04-14T19:58:23.352Z,14.93
2019-04-14T20:00:31.087Z,14.23
2019-04-14T20:02:38.889Z,13.93
2019-04-14T20:04:46.757Z,13.30
2019-04-14T20:06:54.610Z,13.95
2019-04-14T20:09:02.531Z,14.55
2019-04-14T20:11:11.578Z,14.85
2019-04-14T20:13:19.394Z,14.68
2019-04-14T20:15:29.974Z,15.03
2019-04-14T20:17:41.395Z,15.38
2019-04-14T20:19:59.165Z,13.40
2019-04-14T20:22:11.659Z,13.60
2019-04-14T20:24:37.821Z,14.35
2019-04-14T20:27:03.596Z,14.25
2019-04-14T20:29:12.905Z,16.30
2019-04-14T20:31:22.275Z,18.73
2019-04-14T20:33:30.168Z,16.30
2019-04-14T20:35:37.839Z,16.73
2019-04-14T20:37:45.517Z,29.65
2019-04-14T20:39:53.320Z,85.05
2019-04-14T20:42:01.168Z,55.15
2019-04-14T20:44:09.091Z,66.57
2019-04-14T20:46:16.969Z,25.32
2019-04-14T20:48:24.755Z,57.30
2019-04-14T20:50:32.609Z,35.43
2019-04-14T20:52:40.401Z,56.13
2019-04-14T20:54:48.088Z,50.75
2019-04-14T20:56:56.032Z,46.37
2019-04-14T20:59:04.400Z,60.43
2019-04-14T21:01:13.350Z,26.73
2019-04-14T21:03:22.763Z,30.55
2019-04-14T21:05:41.004Z,31.65
2019-04-14T21:08:00.518Z,26.60
2019-04-14T21:10:12.998Z,28.32
2019-04-14T21:12:20.474Z,22.42
2019-04-14T21:14:32.723Z,27.48
2019-04-14T21:16:58.366Z,24.43
2019-04-14T21:19:13.648Z,18.37
2019-04-14T21:21:24.944Z,17.55
2019-04-14T21:23:38.546Z,18.67
2019-04-14T21:26:04.192Z,18.20
2019-04-14T21:28:13.609Z,18.57
2019-04-14T21:30:25.869Z,17.20
2019-04-14T21:32:41.110Z,14.40
2019-04-14T21:34:48.553Z,13.70
2019-04-14T21:37:14.382Z,12.95
2019-04-14T21:39:40.726Z,12.65
2019-04-14T21:41:52.443Z,12.43
2019-04-14T21:44:00.385Z,11.68
2019-04-14T21:46:10.375Z,12.28
2019-04-14T21:48:18.060Z,13.00
2019-04-14T21:50:25.828Z,14.90
2019-04-14T21:52:35.268Z,14.63
2019-04-14T21:54:44.525Z,12.65
2019-04-14T21:56:53.949Z,11.90
2019-04-14T21:59:19.707Z,9.83
2019-04-14T22:01:47.853Z,15.30
2019-04-14T22:04:03.175Z,14.05
2019-04-14T22:06:15.416Z,13.50
2019-04-14T22:08:25.542Z,12.47
2019-04-14T22:10:41.275Z,10.48
2019-04-14T22:20:16.590Z,13.08
2019-04-14T22:22:26.128Z,12.95
2019-04-14T22:24:33.968Z,13.38
2019-04-14T22:26:41.864Z,13.10
2019-04-14T22:28:49.639Z,13.00
2019-04-14T22:30:57.768Z,12.20
2019-04-14T22:33:05.887Z,13.48
2019-04-14T22:35:15.253Z,12.35
2019-04-14T22:37:23.079Z,12.40
2019-04-14T22:39:30.884Z,12.55
2019-04-14T22:41:38.664Z,12.55
2019-04-14T22:43:46.503Z,12.75
2019-04-14T22:45:54.407Z,13.00
2019-04-14T22:48:02.318Z,12.80
2019-04-14T22:50:10.403Z,9.88
2019-04-14T22:52:18.097Z,13.05
2019-04-14T22:54:25.897Z,13.35
2019-04-14T22:56:39.364Z,13.60
2019-04-14T22:58:43.254Z,16.85
2019-04-14T23:00:52.938Z,17.25
2019-04-14T23:03:06.859Z,16.40
2019-04-14T23:05:29.836Z,15.45
2019-04-14T23:07:46.139Z,15.28
2019-04-14T23:09:55.558Z,15.40
2019-04-14T23:12:03.199Z,15.13
2019-04-14T23:14:18.733Z,13.85
2019-04-14T23:16:28.208Z,13.72
2019-04-14T23:18:37.922Z,15.03
2019-04-14T23:20:50.302Z,14.68
2019-04-14T23:23:11.694Z,13.85
2019-04-14T23:25:19.503Z,14.23
2019-04-14T23:27:28.161Z,14.35
2019-04-14T23:29:35.933Z,14.70
2019-04-14T23:31:43.735Z,14.10
2019-04-14T23:33:51.507Z,14.98
2019-04-14T23:36:00.476Z,13.90
2019-04-14T23:38:08.808Z,14.80
2019-04-14T23:40:16.728Z,14.70
2019-04-14T23:42:24.496Z,15.15
2019-04-14T23:44:32.507Z,14.65
2019-04-14T23:46:40.361Z,14.33
2019-04-14T23:48:48.204Z,13.65
2019-04-14T23:50:56.006Z,13.03
2019-04-14T23:53:03.681Z,12.95
2019-04-14T23:55:11.698Z,13.65
2019-04-14T23:57:19.499Z,13.70
2019-04-14T23:59:27.240Z,13.90
